Waynesboro, Georgia
Current Conditions -  °F | °C
As of 1:53 PM on Wednesday 26 Nov 2014 (Local Time) from KAGS Reporting Station
Broken Clouds Broken Clouds  
Wind Chill: 58°   Ceiling: 3800
Heat Index: 58°   Visibility: 10mi
Dew Point: 43°   Wind: 8mph
Humidity: 58%   Direction: 290°WNW
Pressure: 30.02"   Gusts: NA
Location:  33.09°N, 82.02°W
Report Text: KAGS 261853Z 29007KT 260V320 10SM BKN038 14/06 A3002 RMK AO2 SLP165 T01440061
Loading
Personal Weather Stations






























Interactive Weather Map New forecast layout! Learn more

10-Day Weather Forecast

Advertisements
Track Severe Weather on mobile